Terminal Aerodrome Forecast
Issued by NWS

Home | Current Version | Previous Version | Text Only | Print | Product List | Glossary On
Versions: 1 2 3 4 5 6 7 8 9 10 11 12 13 14 15 16 17 18 19 20
000
FTUS44 KLZK 282320
TAFPBF
TAF
KPBF 282320Z 2900/2924 16010G18KT P6SM VCTS SCT025 BKN050CB
      TEMPO 2900/2904 5SM -TSRA BR BKN025CB
     FM290600 16012G20KT P6SM BKN025 BKN035
     FM291800 15015G26KT 4SM -SHRA BR VCTS BKN025 OVC035CB PROB30
      2918/2924 1SM TSRA BR BKN015CB=

USA.gov is the U.S. government's official web portal to all federal, state and local government web resources and services.